createdAt,value
2018-10-01T00:01:35.155Z,34.40
2018-10-01T00:04:02.691Z,40.33
2018-10-01T00:06:30.253Z,41.97
2018-10-01T00:08:57.762Z,34.03
2018-10-01T00:11:25.301Z,35.80
2018-10-01T00:13:52.876Z,34.30
2018-10-01T00:16:20.456Z,36.23
2018-10-01T00:18:47.977Z,39.67
2018-10-01T00:21:21.203Z,35.30
2018-10-01T00:23:48.693Z,34.47
2018-10-01T00:26:16.200Z,37.40
2018-10-01T00:28:43.711Z,31.47
2018-10-01T00:31:11.229Z,31.73
2018-10-01T00:33:38.842Z,28.33
2018-10-01T00:36:06.365Z,32.27
2018-10-01T00:38:33.967Z,39.90
2018-10-01T00:41:01.443Z,31.33
2018-10-01T00:43:28.984Z,30.83
2018-10-01T00:45:56.529Z,30.83
2018-10-01T00:48:24.058Z,26.90
2018-10-01T00:50:51.596Z,28.00
2018-10-01T00:53:19.138Z,30.80
2018-10-01T00:55:46.646Z,30.30
2018-10-01T00:58:14.203Z,26.70
2018-10-01T01:00:41.769Z,41.13
2018-10-01T01:03:09.324Z,35.90
2018-10-01T01:05:36.861Z,34.70
2018-10-01T01:08:04.416Z,33.37
2018-10-01T01:10:31.945Z,42.13
2018-10-01T01:12:59.489Z,29.40
2018-10-01T01:15:27.036Z,34.57
2018-10-01T01:17:54.627Z,31.90
2018-10-01T01:20:22.120Z,35.77
2018-10-01T01:22:49.678Z,34.07
2018-10-01T01:25:17.234Z,33.40
2018-10-01T01:27:44.787Z,37.30
2018-10-01T01:30:12.372Z,37.37
2018-10-01T01:32:39.878Z,36.07
2018-10-01T01:35:07.442Z,34.07
2018-10-01T01:37:34.968Z,37.20
2018-10-01T01:40:02.598Z,35.20
2018-10-01T01:42:30.140Z,34.77
2018-10-01T01:44:57.708Z,32.63
2018-10-01T01:47:25.208Z,31.67
2018-10-01T01:49:52.735Z,35.67
2018-10-01T01:52:20.252Z,35.37
2018-10-01T01:54:47.805Z,35.80
2018-10-01T01:57:15.292Z,31.20
2018-10-01T01:59:42.818Z,35.33
2018-10-01T02:02:10.346Z,39.80
2018-10-01T02:04:37.853Z,36.83
2018-10-01T02:07:05.422Z,35.10
2018-10-01T02:09:32.946Z,32.53
2018-10-01T02:12:00.459Z,35.77
2018-10-01T02:14:28.001Z,36.00
2018-10-01T02:16:55.585Z,42.53
2018-10-01T02:19:23.124Z,32.40
2018-10-01T02:21:50.688Z,32.17
2018-10-01T02:24:18.229Z,30.77
2018-10-01T02:26:45.766Z,35.97
2018-10-01T02:29:13.312Z,35.27
2018-10-01T02:31:40.939Z,36.20
2018-10-01T02:34:08.481Z,45.07
2018-10-01T02:36:36.062Z,53.90
2018-10-01T02:39:07.181Z,55.67
2018-10-01T02:41:34.727Z,53.17
2018-10-01T02:44:02.297Z,56.30
2018-10-01T02:46:29.851Z,62.07
2018-10-01T02:48:57.375Z,57.60
2018-10-01T02:51:24.932Z,59.23
2018-10-01T02:53:58.033Z,52.83
2018-10-01T02:56:25.561Z,60.37
2018-10-01T02:58:53.077Z,56.60
2018-10-01T03:01:20.615Z,60.00
2018-10-01T03:03:48.571Z,57.30
2018-10-01T03:06:16.103Z,66.27
2018-10-01T03:08:43.610Z,73.50
2018-10-01T03:11:11.137Z,61.27
2018-10-01T03:13:38.678Z,65.93
2018-10-01T03:16:06.524Z,65.23
2018-10-01T03:18:34.096Z,68.10
2018-10-01T03:21:01.678Z,68.50
2018-10-01T03:23:29.221Z,61.40
2018-10-01T03:25:56.775Z,54.17
2018-10-01T03:28:24.294Z,59.03
2018-10-01T03:30:51.848Z,57.20
2018-10-01T03:33:19.360Z,63.30
2018-10-01T03:35:46.896Z,60.20
2018-10-01T03:38:14.430Z,60.17
2018-10-01T03:40:41.953Z,65.83
2018-10-01T03:43:09.503Z,64.67
2018-10-01T03:45:37.000Z,66.80
2018-10-01T03:48:04.512Z,60.17
2018-10-01T03:50:32.042Z,53.63
2018-10-01T03:52:59.580Z,62.10
2018-10-01T03:55:27.153Z,57.63
2018-10-01T03:57:54.693Z,64.03
2018-10-01T04:00:22.217Z,65.47
2018-10-01T04:02:49.763Z,68.23
2018-10-01T04:05:17.296Z,57.10
2018-10-01T04:07:44.829Z,57.33
2018-10-01T04:10:12.320Z,50.97
2018-10-01T04:12:39.869Z,60.70
2018-10-01T04:15:07.441Z,58.60
2018-10-01T04:17:35.012Z,55.40
2018-10-01T04:20:02.818Z,63.00
2018-10-01T04:22:35.873Z,60.90
2018-10-01T04:25:03.913Z,59.67
2018-10-01T04:27:31.448Z,60.07
2018-10-01T04:29:58.990Z,64.17
2018-10-01T04:32:26.518Z,60.00
2018-10-01T04:34:54.045Z,62.63
2018-10-01T04:37:21.613Z,64.50
2018-10-01T04:39:49.217Z,62.30
2018-10-01T04:42:16.735Z,68.47
2018-10-01T04:44:44.267Z,67.27
2018-10-01T04:47:11.803Z,65.60
2018-10-01T04:49:39.315Z,70.13
2018-10-01T04:52:06.844Z,72.50
2018-10-01T04:54:34.387Z,70.20
2018-10-01T04:57:01.969Z,73.73
2018-10-01T04:59:29.478Z,71.40
2018-10-01T05:01:57.046Z,65.20
2018-10-01T05:04:24.589Z,75.10
2018-10-01T05:06:52.169Z,78.73
2018-10-01T05:09:19.679Z,70.13
2018-10-01T05:11:47.251Z,71.37
2018-10-01T05:14:14.777Z,72.53
2018-10-01T05:16:42.375Z,74.90
2018-10-01T05:19:09.913Z,73.70
2018-10-01T05:21:37.485Z,75.87
2018-10-01T05:24:05.090Z,80.80
2018-10-01T05:26:32.637Z,70.90
2018-10-01T05:29:00.155Z,71.20
2018-10-01T05:31:27.732Z,76.03
2018-10-01T05:33:55.261Z,69.00
2018-10-01T05:36:22.794Z,77.90
2018-10-01T05:38:50.296Z,88.30
2018-10-01T05:41:17.834Z,74.83
2018-10-01T05:43:45.370Z,81.17
2018-10-01T05:46:12.884Z,64.87
2018-10-01T05:48:40.450Z,72.40
2018-10-01T05:51:07.985Z,67.33
2018-10-01T05:53:35.521Z,69.53
2018-10-01T05:56:03.038Z,69.20
2018-10-01T05:58:30.602Z,74.37
2018-10-01T06:00:58.124Z,70.47
2018-10-01T06:03:25.680Z,62.77
2018-10-01T06:05:53.242Z,61.07
2018-10-01T06:08:20.770Z,69.50
2018-10-01T06:10:48.317Z,61.50
2018-10-01T06:13:15.855Z,72.37
2018-10-01T06:15:43.402Z,68.43
2018-10-01T06:18:10.937Z,57.10
2018-10-01T06:20:38.538Z,66.70
2018-10-01T06:23:06.132Z,65.37
2018-10-01T06:25:33.758Z,61.07
2018-10-01T06:28:01.302Z,69.97
2018-10-01T06:30:28.855Z,72.20
2018-10-01T06:32:56.396Z,59.70
2018-10-01T06:35:23.981Z,63.00
2018-10-01T06:37:51.508Z,63.43
2018-10-01T06:40:19.091Z,67.57
2018-10-01T06:42:46.654Z,68.60
2018-10-01T06:45:14.213Z,61.00
2018-10-01T06:47:41.797Z,62.43
2018-10-01T06:50:09.342Z,63.80
2018-10-01T06:52:36.877Z,58.57
2018-10-01T06:55:04.650Z,67.60
2018-10-01T06:57:32.209Z,60.70
2018-10-01T06:59:59.752Z,56.77
2018-10-01T07:02:27.284Z,60.57
2018-10-01T07:04:54.809Z,62.30
2018-10-01T07:07:22.364Z,53.13
2018-10-01T07:09:49.920Z,60.87
2018-10-01T07:12:17.437Z,61.70
2018-10-01T07:14:45.173Z,55.53
2018-10-01T07:17:12.826Z,58.93
2018-10-01T07:19:40.261Z,52.90
2018-10-01T07:22:07.864Z,51.53
2018-10-01T07:24:35.424Z,53.23
2018-10-01T07:27:02.974Z,50.40
2018-10-01T07:29:30.508Z,44.80
2018-10-01T07:31:58.077Z,43.33
2018-10-01T07:34:25.584Z,40.27
2018-10-01T07:36:53.140Z,36.20
2018-10-01T07:39:20.703Z,42.70
2018-10-01T07:41:48.239Z,45.30
2018-10-01T07:44:15.800Z,50.60
2018-10-01T07:46:43.429Z,42.13
2018-10-01T07:49:10.990Z,44.27
2018-10-01T07:51:38.544Z,45.83
2018-10-01T07:54:06.845Z,48.80
2018-10-01T07:56:34.426Z,55.90
2018-10-01T07:59:02.034Z,41.47
2018-10-01T08:01:29.578Z,42.47
2018-10-01T08:03:57.117Z,39.47
2018-10-01T08:06:24.693Z,43.87
2018-10-01T08:08:52.237Z,36.17
2018-10-01T08:11:19.779Z,43.93
2018-10-01T08:13:47.339Z,38.47
2018-10-01T08:16:14.946Z,37.97
2018-10-01T08:18:42.508Z,31.47
2018-10-01T08:21:10.084Z,40.80
2018-10-01T08:23:37.685Z,40.07
2018-10-01T08:26:05.248Z,40.17
2018-10-01T08:28:32.797Z,38.43
2018-10-01T08:31:00.354Z,35.30
2018-10-01T08:33:27.915Z,38.70
2018-10-01T08:35:55.496Z,38.67
2018-10-01T08:38:23.212Z,40.63
2018-10-01T08:40:50.628Z,37.00
2018-10-01T08:43:18.148Z,33.43
2018-10-01T08:45:45.746Z,36.07
2018-10-01T08:48:14.404Z,31.67
2018-10-01T08:50:50.578Z,34.90
2018-10-01T08:53:21.724Z,35.80
2018-10-01T08:55:49.538Z,35.53
2018-10-01T08:58:17.517Z,35.40
2018-10-01T09:00:45.064Z,31.07
2018-10-01T09:03:12.658Z,28.47
2018-10-01T09:05:40.214Z,29.00
2018-10-01T09:08:07.788Z,30.27
2018-10-01T09:10:35.356Z,35.73
2018-10-01T09:13:02.876Z,26.77
2018-10-01T09:15:30.464Z,30.60
2018-10-01T09:17:58.040Z,22.67
2018-10-01T09:20:25.627Z,29.60
2018-10-01T09:22:53.211Z,33.40
2018-10-01T09:25:20.789Z,26.50
2018-10-01T09:27:48.322Z,27.47
2018-10-01T09:30:15.904Z,29.00
2018-10-01T09:32:43.455Z,25.57
2018-10-01T09:35:11.089Z,16.53
2018-10-01T09:37:38.616Z,17.73
2018-10-01T09:40:06.413Z,18.27
2018-10-01T09:42:33.906Z,19.40
2018-10-01T09:45:01.464Z,19.90
2018-10-01T09:47:28.976Z,21.93
2018-10-01T09:49:56.566Z,19.00
2018-10-01T09:52:24.167Z,21.77
2018-10-01T09:54:51.671Z,22.27
2018-10-01T09:57:19.231Z,15.43
2018-10-01T09:59:46.788Z,17.87
2018-10-01T10:02:14.457Z,16.63
2018-10-01T10:04:41.951Z,16.63
2018-10-01T10:07:09.519Z,16.77
2018-10-01T10:09:37.111Z,21.67
2018-10-01T10:12:04.676Z,19.37
2018-10-01T10:14:32.233Z,19.97
2018-10-01T10:16:59.796Z,17.27
2018-10-01T10:19:27.371Z,18.10
2018-10-01T10:21:55.017Z,16.47
2018-10-01T10:24:22.499Z,18.83
2018-10-01T10:26:50.059Z,13.80
2018-10-01T10:29:17.636Z,16.20
2018-10-01T10:31:45.205Z,25.73
2018-10-01T10:34:12.811Z,16.03
2018-10-01T10:36:40.343Z,14.53
2018-10-01T10:39:09.433Z,14.47
2018-10-01T10:41:37.110Z,19.00
2018-10-01T10:44:04.732Z,16.40
2018-10-01T10:46:32.322Z,21.70
2018-10-01T10:48:59.898Z,21.93
2018-10-01T10:51:27.462Z,16.90
2018-10-01T10:53:55.000Z,21.33
2018-10-01T10:56:22.568Z,21.87
2018-10-01T10:58:50.136Z,23.53
2018-10-01T11:01:17.698Z,23.70
2018-10-01T11:03:45.378Z,22.27
2018-10-01T11:06:12.945Z,20.63
2018-10-01T11:08:40.548Z,23.30
2018-10-01T11:11:08.131Z,28.23
2018-10-01T11:13:35.718Z,27.70
2018-10-01T11:16:03.292Z,22.13
2018-10-01T11:18:30.849Z,24.27
2018-10-01T11:20:58.529Z,29.73
2018-10-01T11:23:26.022Z,26.10
2018-10-01T11:25:53.607Z,23.67
2018-10-01T11:28:21.162Z,26.13
2018-10-01T11:30:48.740Z,25.70
2018-10-01T11:33:16.369Z,31.63
2018-10-01T11:35:43.955Z,28.63
2018-10-01T11:38:11.633Z,29.90
2018-10-01T11:40:39.270Z,27.87
2018-10-01T11:43:06.920Z,28.30
2018-10-01T11:45:34.647Z,26.10
2018-10-01T11:48:02.207Z,22.17
2018-10-01T11:50:30.162Z,32.60
2018-10-01T11:52:57.776Z,32.40
2018-10-01T11:55:25.417Z,25.47
2018-10-01T11:57:57.943Z,32.77
2018-10-01T12:00:25.756Z,28.13
2018-10-01T12:02:53.382Z,29.03
2018-10-01T12:05:21.033Z,25.73
2018-10-01T12:07:48.671Z,27.40
2018-10-01T12:10:16.956Z,28.50
2018-10-01T12:12:44.573Z,25.43
2018-10-01T12:15:12.227Z,36.73
2018-10-01T12:17:39.889Z,25.40
2018-10-01T12:20:07.510Z,28.43
2018-10-01T12:22:35.741Z,30.27
2018-10-01T12:25:03.477Z,35.17
2018-10-01T12:27:31.131Z,28.43
2018-10-01T12:29:59.143Z,35.43
2018-10-01T12:32:27.466Z,34.10
2018-10-01T12:34:55.173Z,35.60
2018-10-01T12:37:22.795Z,32.00
2018-10-01T12:39:50.774Z,29.47
2018-10-01T12:42:18.415Z,28.53
2018-10-01T12:44:46.061Z,33.23
2018-10-01T12:47:13.672Z,26.37
2018-10-01T12:49:41.483Z,32.97
2018-10-01T12:52:09.148Z,27.63
2018-10-01T12:54:36.782Z,28.43
2018-10-01T12:57:04.488Z,35.73
2018-10-01T12:59:32.297Z,31.37
2018-10-01T13:02:00.146Z,34.80
2018-10-01T13:04:27.826Z,29.83
2018-10-01T13:06:55.463Z,27.43
2018-10-01T13:09:23.141Z,36.03
2018-10-01T13:11:50.875Z,34.90
2018-10-01T13:14:18.650Z,36.97
2018-10-01T13:16:46.322Z,28.67
2018-10-01T13:19:13.976Z,42.13
2018-10-01T13:21:41.699Z,38.10
2018-10-01T13:24:09.452Z,30.30
2018-10-01T13:26:37.076Z,32.53
2018-10-01T13:29:04.780Z,37.90
2018-10-01T13:31:32.480Z,33.40
2018-10-01T13:34:00.180Z,35.47
2018-10-01T13:36:28.137Z,31.17
2018-10-01T13:38:55.869Z,35.73
2018-10-01T13:41:23.564Z,37.10
2018-10-01T13:43:51.256Z,36.33
2018-10-01T13:46:18.965Z,36.37
2018-10-01T13:48:46.671Z,40.70
2018-10-01T13:51:14.280Z,38.77
2018-10-01T13:53:41.963Z,36.80
2018-10-01T13:56:09.647Z,42.23
2018-10-01T13:58:38.007Z,40.83
2018-10-01T14:01:05.756Z,39.13
2018-10-01T14:03:33.649Z,34.57
2018-10-01T14:06:01.502Z,35.20
2018-10-01T14:08:29.212Z,34.87
2018-10-01T14:10:56.984Z,35.23
2018-10-01T14:13:24.823Z,33.73
2018-10-01T14:15:52.523Z,30.23
2018-10-01T14:18:20.867Z,39.07
2018-10-01T14:20:48.582Z,33.17
2018-10-01T14:23:16.961Z,39.37
2018-10-01T14:25:44.649Z,38.53
2018-10-01T14:28:13.997Z,34.90
2018-10-01T14:30:41.711Z,34.30
2018-10-01T14:33:09.521Z,37.93
2018-10-01T14:35:37.265Z,33.87
2018-10-01T14:38:06.275Z,32.70
2018-10-01T14:40:35.766Z,34.80
2018-10-01T14:43:04.653Z,40.73
2018-10-01T14:45:32.635Z,35.70
2018-10-01T14:48:01.158Z,37.03
2018-10-01T14:50:29.561Z,38.23
2018-10-01T14:52:57.442Z,36.87
2018-10-01T14:55:26.133Z,34.77
2018-10-01T14:57:54.283Z,36.63
2018-10-01T15:00:22.066Z,38.37
2018-10-01T15:02:50.897Z,35.53
2018-10-01T15:05:18.874Z,42.37
2018-10-01T15:07:46.651Z,32.20
2018-10-01T15:10:14.609Z,42.10
2018-10-01T15:12:44.565Z,35.97
2018-10-01T15:15:12.656Z,41.77
2018-10-01T15:17:42.911Z,43.37
2018-10-01T15:20:11.241Z,38.43
2018-10-01T15:22:39.302Z,42.13
2018-10-01T15:25:08.329Z,35.17
2018-10-01T15:27:37.267Z,38.40
2018-10-01T15:30:07.299Z,36.83
2018-10-01T15:32:35.479Z,43.23
2018-10-01T15:35:03.388Z,47.70
2018-10-01T15:37:32.080Z,47.60
2018-10-01T15:39:59.812Z,39.83
2018-10-01T15:42:27.853Z,56.33
2018-10-01T15:44:57.567Z,41.30
2018-10-01T15:47:25.309Z,37.70
2018-10-01T15:49:55.981Z,37.57
2018-10-01T15:52:27.685Z,37.90
2018-10-01T15:54:55.565Z,51.17
2018-10-01T15:57:23.440Z,38.10
2018-10-01T15:59:51.230Z,38.20
2018-10-01T16:02:20.442Z,44.10
2018-10-01T16:04:48.215Z,38.70
2018-10-01T16:07:16.481Z,39.57
2018-10-01T16:09:46.157Z,44.10
2018-10-01T16:12:14.910Z,46.53
2018-10-01T16:14:43.361Z,46.37
2018-10-01T16:17:11.754Z,37.23
2018-10-01T16:19:40.679Z,49.93
2018-10-01T16:22:10.208Z,49.90
2018-10-01T16:24:38.589Z,47.70
2018-10-01T16:27:10.617Z,43.30
2018-10-01T16:29:38.469Z,46.67
2018-10-01T16:32:06.641Z,47.70
2018-10-01T16:34:35.680Z,43.77
2018-10-01T16:37:04.781Z,54.33
2018-10-01T16:39:36.387Z,57.05
2018-10-01T16:42:06.655Z,52.03
2018-10-01T16:44:35.221Z,56.20
2018-10-01T16:47:04.431Z,57.33
2018-10-01T16:49:32.199Z,52.93
2018-10-01T16:52:00.765Z,53.40
2018-10-01T16:54:28.760Z,53.73
2018-10-01T16:57:01.369Z,46.80
2018-10-01T16:59:31.377Z,38.90
2018-10-01T17:02:00.072Z,51.90
2018-10-01T17:04:27.819Z,48.87
2018-10-01T17:06:57.604Z,47.90
2018-10-01T17:09:25.824Z,49.40
2018-10-01T17:11:54.235Z,55.03
2018-10-01T17:14:22.035Z,53.63
2018-10-01T17:16:51.132Z,53.23
2018-10-01T17:19:22.186Z,55.80
2018-10-01T17:21:52.263Z,57.60
2018-10-01T17:24:22.331Z,63.27
2018-10-01T17:26:51.438Z,71.13
2018-10-01T17:29:22.299Z,54.33
2018-10-01T17:31:52.163Z,54.80
2018-10-01T17:34:20.316Z,59.70
2018-10-01T17:36:48.942Z,58.20
2018-10-01T17:39:22.746Z,65.50
2018-10-01T17:41:51.855Z,74.93
2018-10-01T17:44:20.300Z,57.60
2018-10-01T17:46:49.808Z,56.27
2018-10-01T17:49:18.649Z,60.87
2018-10-01T17:51:50.380Z,61.03
2018-10-01T17:54:22.071Z,63.47
2018-10-01T17:56:50.459Z,54.40
2018-10-01T17:59:19.739Z,70.33
2018-10-01T18:01:49.046Z,60.97
2018-10-01T18:04:19.300Z,57.67
2018-10-01T18:06:48.950Z,58.57
2018-10-01T18:09:20.559Z,62.40
2018-10-01T18:11:50.077Z,58.87
2018-10-01T18:14:21.684Z,66.83
2018-10-01T18:16:51.636Z,59.33
2018-10-01T18:19:23.558Z,66.50
2018-10-01T18:21:52.189Z,61.37
2018-10-01T18:24:27.153Z,57.83
2018-10-01T18:26:55.051Z,59.90
2018-10-01T18:29:25.082Z,57.77
2018-10-01T18:31:57.367Z,56.73
2018-10-01T18:34:27.991Z,62.03
2018-10-01T18:36:56.649Z,61.53
2018-10-01T18:39:29.022Z,52.93
2018-10-01T18:42:02.981Z,65.30
2018-10-01T18:44:33.960Z,56.33
2018-10-01T18:47:04.320Z,69.37
2018-10-01T18:49:38.000Z,63.03
2018-10-01T18:52:06.142Z,72.00
2018-10-01T18:54:36.313Z,51.50
2018-10-01T18:57:07.147Z,52.37
2018-10-01T18:59:38.835Z,57.90
2018-10-01T19:02:07.371Z,50.20
2018-10-01T19:04:37.979Z,57.00
2018-10-01T19:07:08.276Z,56.37
2018-10-01T19:09:38.550Z,58.20
2018-10-01T19:12:11.284Z,66.33
2018-10-01T19:14:40.732Z,58.73
2018-10-01T19:17:08.680Z,56.40
2018-10-01T19:19:39.254Z,52.70
2018-10-01T19:22:08.133Z,58.93
2018-10-01T19:24:37.568Z,57.60
2018-10-01T19:27:06.367Z,58.63
2018-10-01T19:29:36.658Z,60.40
2018-10-01T19:32:07.340Z,57.77
2018-10-01T19:34:37.162Z,60.23
2018-10-01T19:37:06.950Z,56.70
2018-10-01T19:39:36.913Z,57.83
2018-10-01T19:42:12.036Z,60.97
2018-10-01T19:44:45.620Z,55.90
2018-10-01T19:47:15.897Z,52.47
2018-10-01T19:49:46.796Z,51.70
2018-10-01T19:52:14.953Z,57.20
2018-10-01T19:54:46.015Z,52.58
2018-10-01T19:57:14.095Z,51.42
2018-10-01T19:59:43.095Z,54.88
2018-10-01T20:02:13.835Z,53.25
2018-10-01T20:04:44.808Z,51.60
2018-10-01T20:07:13.911Z,52.08
2018-10-01T20:09:46.864Z,57.13
2018-10-01T20:12:15.861Z,51.20
2018-10-01T20:14:45.522Z,51.83
2018-10-01T20:17:14.205Z,48.85
2018-10-01T20:19:44.528Z,45.23
2018-10-01T20:22:14.590Z,47.62
2018-10-01T20:24:43.835Z,55.88
2018-10-01T20:27:12.235Z,47.03
2018-10-01T20:29:40.932Z,41.48
2018-10-01T20:32:12.602Z,43.75
2018-10-01T20:34:48.351Z,44.10
2018-10-01T20:37:16.608Z,41.18
2018-10-01T20:39:44.340Z,49.25
2018-10-01T20:42:13.351Z,44.27
2018-10-01T20:44:42.590Z,42.70
2018-10-01T20:47:12.088Z,46.15
2018-10-01T20:49:40.243Z,46.83
2018-10-01T20:52:09.822Z,46.15
2018-10-01T20:54:38.307Z,46.95
2018-10-01T20:57:07.817Z,40.58
2018-10-01T20:59:35.585Z,45.85
2018-10-01T21:02:03.981Z,41.88
2018-10-01T21:04:31.759Z,47.08
2018-10-01T21:07:03.692Z,43.23
2018-10-01T21:09:33.629Z,45.15
2018-10-01T21:12:01.335Z,48.98
2018-10-01T21:14:30.323Z,40.52
2018-10-01T21:16:58.076Z,40.23
2018-10-01T21:19:25.811Z,46.30
2018-10-01T21:21:54.605Z,38.40
2018-10-01T21:24:23.610Z,42.58
2018-10-01T21:26:52.524Z,39.40
2018-10-01T21:29:20.225Z,39.63
2018-10-01T21:31:49.785Z,40.60
2018-10-01T21:34:19.973Z,44.85
2018-10-01T21:36:47.617Z,41.55
2018-10-01T21:39:30.776Z,44.25
2018-10-01T21:41:58.436Z,40.12
2018-10-01T21:44:26.062Z,46.58
2018-10-01T21:46:53.892Z,46.02
2018-10-01T21:49:21.711Z,41.77
2018-10-01T21:51:49.367Z,40.45
2018-10-01T21:54:17.037Z,39.58
2018-10-01T21:56:44.776Z,45.83
2018-10-01T21:59:12.441Z,39.25
2018-10-01T22:01:40.689Z,38.40
2018-10-01T22:04:08.523Z,37.33
2018-10-01T22:06:36.297Z,30.40
2018-10-01T22:09:05.731Z,31.07
2018-10-01T22:11:33.328Z,20.90
2018-10-01T22:14:00.943Z,24.72
2018-10-01T22:16:28.588Z,19.98
2018-10-01T22:18:56.184Z,21.85
2018-10-01T22:21:23.770Z,23.65
2018-10-01T22:23:51.370Z,21.45
2018-10-01T22:26:18.896Z,22.62
2018-10-01T22:28:46.445Z,24.30
2018-10-01T22:31:13.984Z,28.57
2018-10-01T22:33:41.501Z,24.12
2018-10-01T22:36:09.046Z,25.27
2018-10-01T22:38:36.579Z,27.37
2018-10-01T22:41:04.127Z,27.15
2018-10-01T22:43:31.651Z,28.02
2018-10-01T22:45:59.200Z,34.13
2018-10-01T22:48:26.789Z,29.60
2018-10-01T22:50:54.371Z,27.75
2018-10-01T22:53:21.912Z,32.60
2018-10-01T22:55:49.423Z,36.88
2018-10-01T22:58:16.966Z,45.08
2018-10-01T23:00:44.541Z,35.17
2018-10-01T23:03:12.075Z,36.25
2018-10-01T23:05:39.612Z,35.83
2018-10-01T23:08:07.175Z,32.50
2018-10-01T23:10:34.683Z,37.25
2018-10-01T23:13:02.218Z,40.67
2018-10-01T23:15:29.798Z,42.50
2018-10-01T23:17:57.321Z,42.53
2018-10-01T23:20:24.826Z,43.75
2018-10-01T23:22:52.369Z,35.75
2018-10-01T23:25:19.886Z,35.63
2018-10-01T23:27:47.411Z,37.05
2018-10-01T23:30:14.942Z,38.73
2018-10-01T23:32:42.484Z,38.90
2018-10-01T23:35:10.009Z,37.75
2018-10-01T23:37:37.516Z,38.73
2018-10-01T23:40:05.138Z,36.00
2018-10-01T23:42:32.694Z,38.80
2018-10-01T23:45:00.280Z,37.48
2018-10-01T23:47:27.790Z,44.45
2018-10-01T23:49:55.356Z,42.45
2018-10-01T23:52:22.890Z,37.83
2018-10-01T23:54:50.446Z,41.65
2018-10-01T23:57:17.966Z,40.15
2018-10-01T23:59:45.544Z,37.95
